LDZA Airport Information

Runway Information
Runway 05 Length 10669 ft width 148 ft
Elevation 353 ft Threshold 0 ft Heading 47
Runway 23 Length 10669 ft Width 148 ft
Elevation 348 ft Threshold 0 ft Heading 227
Airport Frequencies
Type APP Name APP Frequency 120.7 MHZ
Type ATIS Name ATIS Frequency 124.375 MHZ
Type GND Name GND Frequency 121.85 MHZ
Type INFO Name INFO Frequency 124.85 MHZ
Type RDR Name RADAR Frequency 120.7 MHZ
Type TWR Name TWR Frequency 118.3 MHZ
Airport Navaids
Type DME Name Iza Frequency 109500 KHZ
Type NDB Name Pisarovina Frequency 424 KHZ
Type NDB Name S.kKaljevec Frequency 350 KHZ
Type NDB Name Velika Gorica Frequency 325 KHZ
Type VOR-DME Name Zagreb Frequency 113700 KHZ
Type NDB Name Zagreb Frequency 367 KHZ
Airport Weather Information & NOTAM
ADDS - METARS form results

(1845 UTC 20 October 2019)
Data provider http://aviationweather.gov/metar/data/
 
METAR text: LDZA 201830Z 27005KT CAVOK 16/11 Q1018 NOSIG
Conditions at: LDZA (ZAGREB/PLESO , HR) observed 1830 UTC 20 October 2019
Temperature: 16.0°C (61°F)
Dewpoint: 11.0°C (52°F) [RH = 72%]
Pressure (altimeter): 30.06 inches Hg (1018.0 mb)
Winds: from the W (270 degrees) at 6 MPH (5 knots; 2.6 m/s)
Visibility: 6 or more miles (10+ km)
Ceiling: ceiling and visibility are OK
Clouds: unknown
Weather: no significant weather observed at this time

METAR text: LDZA 201800Z 27004KT CAVOK 17/12 Q1018 NOSIG
Conditions at: LDZA (ZAGREB/PLESO , HR) observed 1800 UTC 20 October 2019
Temperature: 17.0°C (63°F)
Dewpoint: 12.0°C (54°F) [RH = 72%]
Pressure (altimeter): 30.06 inches Hg (1018.0 mb)
Winds: from the W (270 degrees) at 5 MPH (4 knots; 2.1 m/s)
Visibility: 6 or more miles (10+ km)
Ceiling: ceiling and visibility are OK
Clouds: unknown
Weather: no significant weather observed at this time

Forecast for: LDZA (ZAGREB/PLESO , HR)
Text: TAF LDZA 201725Z 2018/2118 23005KT CAVOK TX26/2113Z TN11/2104Z
Forecast period: 1800 UTC 20 October 2019 to 1800 UTC 21 October 2019
Forecast type: FROM: standard forecast or significant change
Winds: from the SW (230 degrees) at 6 MPH (5 knots; 2.6 m/s)
Visibility: 6 or more miles 10+ km)
Ceiling: unknown
Clouds: missing
Weather: no significant weather forecast for this period
Text: TEMPO 2109/2116 23012KT
Forecast period: 0900 to 1600 UTC 21 October 2019
Forecast type: TEMPORARY: The following changes expected for less than half the time period
Winds: from the SW (230 degrees) at 14 MPH (12 knots; 6.2 m/s)
Visibility: missing
Ceiling: unknown
Clouds: missing
Weather: no significant weather forecast for this period